sensor_id;sensor_type;location;lat;lon;timestamp;pressure;altitude;pressure_sealevel;temperature;humidity
79586;BME280;69054;50.866;4.636;2023-10-19T00:00:46;98839.09;;;15.20;100.00
79586;BME280;69054;50.866;4.636;2023-10-19T00:03:14;98828.66;;;15.27;100.00
79586;BME280;69054;50.866;4.636;2023-10-19T00:05:41;98828.94;;;15.36;100.00
79586;BME280;69054;50.866;4.636;2023-10-19T00:08:15;98818.22;;;15.29;100.00
79586;BME280;69054;50.866;4.636;2023-10-19T00:10:52;98821.75;;;15.24;100.00
79586;BME280;69054;50.866;4.636;2023-10-19T00:13:38;98822.59;;;15.20;100.00
79586;BME280;69054;50.866;4.636;2023-10-19T00:16:08;98826.47;;;15.19;100.00
79586;BME280;69054;50.866;4.636;2023-10-19T00:18:41;98830.56;;;15.21;100.00
79586;BME280;69054;50.866;4.636;2023-10-19T00:21:08;98818.19;;;15.19;100.00
79586;BME280;69054;50.866;4.636;2023-10-19T00:23:45;98833.34;;;15.26;100.00
79586;BME280;69054;50.866;4.636;2023-10-19T00:26:14;98830.00;;;15.24;100.00
79586;BME280;69054;50.866;4.636;2023-10-19T00:28:43;98829.75;;;15.16;100.00
79586;BME280;69054;50.866;4.636;2023-10-19T00:31:11;98837.44;;;15.08;100.00
79586;BME280;69054;50.866;4.636;2023-10-19T00:33:37;98831.94;;;15.08;100.00
79586;BME280;69054;50.866;4.636;2023-10-19T00:36:09;98836.91;;;15.12;100.00
79586;BME280;69054;50.866;4.636;2023-10-19T00:38:39;98837.44;;;15.08;100.00
79586;BME280;69054;50.866;4.636;2023-10-19T00:41:06;98836.31;;;15.04;100.00
79586;BME280;69054;50.866;4.636;2023-10-19T00:43:36;98830.00;;;15.04;100.00
79586;BME280;69054;50.866;4.636;2023-10-19T00:46:08;98828.63;;;15.01;100.00
79586;BME280;69054;50.866;4.636;2023-10-19T00:48:45;98838.53;;;15.07;100.00
79586;BME280;69054;50.866;4.636;2023-10-19T00:51:14;98830.84;;;15.10;100.00
79586;BME280;69054;50.866;4.636;2023-10-19T00:53:54;98825.34;;;15.10;100.00
79586;BME280;69054;50.866;4.636;2023-10-19T00:56:21;98830.31;;;15.13;100.00
79586;BME280;69054;50.866;4.636;2023-10-19T00:58:49;98821.47;;;15.11;100.00
79586;BME280;69054;50.866;4.636;2023-10-19T01:01:23;98832.75;;;15.04;100.00
79586;BME280;69054;50.866;4.636;2023-10-19T01:03:53;98828.06;;;15.04;100.00
79586;BME280;69054;50.866;4.636;2023-10-19T01:06:25;98828.91;;;15.00;100.00
79586;BME280;69054;50.866;4.636;2023-10-19T01:08:52;98840.47;;;15.07;100.00
79586;BME280;69054;50.866;4.636;2023-10-19T01:11:18;98838.56;;;15.13;100.00
79586;BME280;69054;50.866;4.636;2023-10-19T01:13:47;98826.44;;;15.08;100.00
79586;BME280;69054;50.866;4.636;2023-10-19T01:16:17;98839.66;;;15.12;100.00
79586;BME280;69054;50.866;4.636;2023-10-19T01:18:51;98834.69;;;15.03;100.00
79586;BME280;69054;50.866;4.636;2023-10-19T01:21:22;98834.41;;;15.10;100.00
79586;BME280;69054;50.866;4.636;2023-10-19T01:23:50;98836.91;;;15.12;100.00
79586;BME280;69054;50.866;4.636;2023-10-19T01:26:15;98836.34;;;15.15;99.99
79586;BME280;69054;50.866;4.636;2023-10-19T01:28:47;98832.22;;;15.12;99.95
79586;BME280;69054;50.866;4.636;2023-10-19T01:31:22;98841.84;;;15.10;100.00
79586;BME280;69054;50.866;4.636;2023-10-19T01:33:48;98845.16;;;15.12;100.00
79586;BME280;69054;50.866;4.636;2023-10-19T01:36:14;98844.06;;;15.13;99.75
79586;BME280;69054;50.866;4.636;2023-10-19T01:38:42;98843.22;;;15.12;99.52
79586;BME280;69054;50.866;4.636;2023-10-19T01:41:09;98836.34;;;15.15;99.60
79586;BME280;69054;50.866;4.636;2023-10-19T01:43:45;98837.16;;;15.15;99.47
79586;BME280;69054;50.866;4.636;2023-10-19T01:46:13;98847.34;;;15.15;99.87
79586;BME280;69054;50.866;4.636;2023-10-19T01:48:42;98836.63;;;15.18;99.22
79586;BME280;69054;50.866;4.636;2023-10-19T01:51:10;98837.16;;;15.15;99.25
79586;BME280;69054;50.866;4.636;2023-10-19T01:53:37;98829.75;;;15.21;98.88
79586;BME280;69054;50.866;4.636;2023-10-19T01:56:21;98830.03;;;15.14;98.84
79586;BME280;69054;50.866;4.636;2023-10-19T01:58:47;98829.75;;;15.16;98.99
79586;BME280;69054;50.866;4.636;2023-10-19T02:01:14;98829.75;;;15.21;98.35
79586;BME280;69054;50.866;4.636;2023-10-19T02:03:49;98836.06;;;15.16;98.62
79586;BME280;69054;50.866;4.636;2023-10-19T02:06:20;98839.09;;;15.10;99.44
79586;BME280;69054;50.866;4.636;2023-10-19T02:08:55;98833.56;;;15.04;99.69
79586;BME280;69054;50.866;4.636;2023-10-19T02:11:27;98833.59;;;14.99;99.97
79586;BME280;69054;50.866;4.636;2023-10-19T02:13:55;98828.91;;;15.00;99.98
79586;BME280;69054;50.866;4.636;2023-10-19T02:16:21;98833.59;;;14.99;100.00
79586;BME280;69054;50.866;4.636;2023-10-19T02:18:48;98830.28;;;15.02;99.86
79586;BME280;69054;50.866;4.636;2023-10-19T02:21:15;98826.41;;;14.98;99.97
79586;BME280;69054;50.866;4.636;2023-10-19T02:23:44;98823.13;;;14.96;100.00
79586;BME280;69054;50.866;4.636;2023-10-19T02:26:10;98819.25;;;14.87;100.00
79586;BME280;69054;50.866;4.636;2023-10-19T02:28:39;98833.56;;;14.89;100.00
79586;BME280;69054;50.866;4.636;2023-10-19T02:31:05;98832.75;;;14.88;100.00
79586;BME280;69054;50.866;4.636;2023-10-19T02:33:52;98822.25;;;14.80;100.00
79586;BME280;69054;50.866;4.636;2023-10-19T02:36:24;98828.25;;;14.67;100.00
79586;BME280;69054;50.866;4.636;2023-10-19T02:38:54;98820.56;;;14.64;100.00
79586;BME280;69054;50.866;4.636;2023-10-19T02:41:20;98813.69;;;14.66;100.00
79586;BME280;69054;50.866;4.636;2023-10-19T02:43:46;98808.72;;;14.58;100.00
79586;BME280;69054;50.866;4.636;2023-10-19T02:46:16;98805.97;;;14.58;100.00
79586;BME280;69054;50.866;4.636;2023-10-19T02:48:45;98789.16;;;14.54;100.00
79586;BME280;69054;50.866;4.636;2023-10-19T02:51:12;98802.91;;;14.49;100.00
79586;BME280;69054;50.866;4.636;2023-10-19T02:53:39;98791.59;;;14.41;100.00
79586;BME280;69054;50.866;4.636;2023-10-19T02:56:12;98791.00;;;14.28;100.00
79586;BME280;69054;50.866;4.636;2023-10-19T02:58:43;98788.22;;;14.18;100.00
79586;BME280;69054;50.866;4.636;2023-10-19T03:01:20;98776.09;;;14.14;100.00
79586;BME280;69054;50.866;4.636;2023-10-19T03:03:52;98781.03;;;14.07;100.00
79586;BME280;69054;50.866;4.636;2023-10-19T03:06:28;98788.75;;;14.15;100.00
79586;BME280;69054;50.866;4.636;2023-10-19T03:09:04;98786.00;;;14.10;100.00
79586;BME280;69054;50.866;4.636;2023-10-19T03:11:38;98779.91;;;14.02;100.00
79586;BME280;69054;50.866;4.636;2023-10-19T03:14:06;98782.66;;;14.02;100.00
79586;BME280;69054;50.866;4.636;2023-10-19T03:16:32;98772.16;;;13.89;100.00
79586;BME280;69054;50.866;4.636;2023-10-19T03:18:57;98768.53;;;13.78;100.00
79586;BME280;69054;50.866;4.636;2023-10-19T03:21:22;98766.59;;;13.79;100.00
79586;BME280;69054;50.866;4.636;2023-10-19T03:23:58;98773.22;;;13.83;100.00
79586;BME280;69054;50.866;4.636;2023-10-19T03:26:27;98772.16;;;13.89;100.00
79586;BME280;69054;50.866;4.636;2023-10-19T03:28:56;98775.97;;;13.88;100.00
79586;BME280;69054;50.866;4.636;2023-10-19T03:31:25;98774.38;;;13.92;100.00
79586;BME280;69054;50.866;4.636;2023-10-19T03:33:52;98779.63;;;13.99;100.00
79586;BME280;69054;50.866;4.636;2023-10-19T03:36:24;98778.56;;;14.05;100.00
79586;BME280;69054;50.866;4.636;2023-10-19T03:38:50;98782.44;;;14.14;100.00
79586;BME280;69054;50.866;4.636;2023-10-19T03:41:18;98777.78;;;14.20;100.00
79586;BME280;69054;50.866;4.636;2023-10-19T03:43:47;98781.09;;;14.22;100.00
79586;BME280;69054;50.866;4.636;2023-10-19T03:46:14;98777.78;;;14.20;100.00
79586;BME280;69054;50.866;4.636;2023-10-19T03:49:05;98781.09;;;14.22;100.00
79586;BME280;69054;50.866;4.636;2023-10-19T03:51:39;98784.97;;;14.26;100.00
79586;BME280;69054;50.866;4.636;2023-10-19T03:54:24;98780.59;;;14.35;100.00
79586;BME280;69054;50.866;4.636;2023-10-19T03:56:50;98782.25;;;14.36;100.00
79586;BME280;69054;50.866;4.636;2023-10-19T03:59:17;98780.06;;;14.38;100.00
79586;BME280;69054;50.866;4.636;2023-10-19T04:01:43;98781.16;;;14.37;100.00
79586;BME280;69054;50.866;4.636;2023-10-19T04:04:10;98782.25;;;14.36;100.00
79586;BME280;69054;50.866;4.636;2023-10-19T04:06:36;98780.59;;;14.35;100.00
79586;BME280;69054;50.866;4.636;2023-10-19T04:09:02;98783.91;;;14.37;100.00
79586;BME280;69054;50.866;4.636;2023-10-19T04:11:31;98781.69;;;14.40;100.00
79586;BME280;69054;50.866;4.636;2023-10-19T04:14:16;98781.69;;;14.40;100.00
79586;BME280;69054;50.866;4.636;2023-10-19T04:16:43;98783.91;;;14.37;100.00
79586;BME280;69054;50.866;4.636;2023-10-19T04:19:13;98788.28;;;14.33;100.00
79586;BME280;69054;50.866;4.636;2023-10-19T04:21:40;98783.91;;;14.37;100.00
79586;BME280;69054;50.866;4.636;2023-10-19T04:24:09;98791.59;;;14.41;100.00
79586;BME280;69054;50.866;4.636;2023-10-19T04:26:35;98787.72;;;14.36;100.00
79586;BME280;69054;50.866;4.636;2023-10-19T04:29:03;98780.34;;;14.37;100.00
79586;BME280;69054;50.866;4.636;2023-10-19T04:31:36;98786.91;;;14.36;100.00
79586;BME280;69054;50.866;4.636;2023-10-19T04:34:21;98787.72;;;14.36;100.00
79586;BME280;69054;50.866;4.636;2023-10-19T04:36:48;98777.06;;;14.40;100.00
79586;BME280;69054;50.866;4.636;2023-10-19T04:39:14;98780.88;;;14.39;100.00
79586;BME280;69054;50.866;4.636;2023-10-19T04:41:40;98778.94;;;14.40;100.00
79586;BME280;69054;50.866;4.636;2023-10-19T04:44:06;98775.38;;;14.39;100.00
79586;BME280;69054;50.866;4.636;2023-10-19T04:46:34;98774.00;;;14.36;100.00
79586;BME280;69054;50.866;4.636;2023-10-19T04:49:00;98773.72;;;14.38;100.00
79586;BME280;69054;50.866;4.636;2023-10-19T04:51:26;98769.91;;;14.39;100.00
79586;BME280;69054;50.866;4.636;2023-10-19T04:53:51;98772.38;;;14.35;100.00
79586;BME280;69054;50.866;4.636;2023-10-19T04:56:17;98767.13;;;14.34;100.00
79586;BME280;69054;50.866;4.636;2023-10-19T04:58:42;98780.31;;;14.32;100.00
79586;BME280;69054;50.866;4.636;2023-10-19T05:01:07;98775.66;;;14.32;100.00
79586;BME280;69054;50.866;4.636;2023-10-19T05:03:33;98781.97;;;14.33;100.00
79586;BME280;69054;50.866;4.636;2023-10-19T05:05:59;98783.63;;;14.34;100.00
79586;BME280;69054;50.866;4.636;2023-10-19T05:08:26;98780.03;;;14.33;100.00
79586;BME280;69054;50.866;4.636;2023-10-19T05:10:53;98770.69;;;14.34;100.00
79586;BME280;69054;50.866;4.636;2023-10-19T05:13:23;98775.38;;;14.34;100.00
79586;BME280;69054;50.866;4.636;2023-10-19T05:15:49;98783.34;;;14.35;100.00
79586;BME280;69054;50.866;4.636;2023-10-19T05:18:14;98775.13;;;14.35;100.00
79586;BME280;69054;50.866;4.636;2023-10-19T05:20:39;98767.94;;;14.34;100.00
79586;BME280;69054;50.866;4.636;2023-10-19T05:23:08;98772.09;;;14.37;100.00
79586;BME280;69054;50.866;4.636;2023-10-19T05:25:35;98771.25;;;14.36;100.00
79586;BME280;69054;50.866;4.636;2023-10-19T05:28:04;98765.22;;;14.40;100.00
79586;BME280;69054;50.866;4.636;2023-10-19T05:30:29;98763.03;;;14.42;100.00
79586;BME280;69054;50.866;4.636;2023-10-19T05:32:55;98765.22;;;14.40;100.00
79586;BME280;69054;50.866;4.636;2023-10-19T05:35:22;98770.72;;;14.40;100.00
79586;BME280;69054;50.866;4.636;2023-10-19T05:37:49;98760.84;;;14.44;100.00
79586;BME280;69054;50.866;4.636;2023-10-19T05:40:14;98761.13;;;14.47;100.00
79586;BME280;69054;50.866;4.636;2023-10-19T05:42:41;98762.78;;;14.48;100.00
79586;BME280;69054;50.866;4.636;2023-10-19T05:45:07;98769.63;;;14.46;100.00
79586;BME280;69054;50.866;4.636;2023-10-19T05:47:32;98766.06;;;14.45;100.00
79586;BME280;69054;50.866;4.636;2023-10-19T05:49:58;98764.13;;;14.46;100.00
79586;BME280;69054;50.866;4.636;2023-10-19T05:52:23;98768.00;;;14.45;100.00
79586;BME280;69054;50.866;4.636;2023-10-19T05:54:48;98765.53;;;14.43;100.00
79586;BME280;69054;50.866;4.636;2023-10-19T05:57:19;98768.53;;;14.47;100.00
79586;BME280;69054;50.866;4.636;2023-10-19T05:59:44;98764.44;;;14.49;100.00
79586;BME280;69054;50.866;4.636;2023-10-19T06:02:09;98761.41;;;14.51;100.00
79586;BME280;69054;50.866;4.636;2023-10-19T06:04:35;98774.59;;;14.49;100.00
79586;BME280;69054;50.866;4.636;2023-10-19T06:07:01;98778.19;;;14.49;100.00
79586;BME280;69054;50.866;4.636;2023-10-19T06:09:26;98779.56;;;14.52;100.00
79586;BME280;69054;50.866;4.636;2023-10-19T06:11:55;98778.19;;;14.49;100.00
79586;BME280;69054;50.866;4.636;2023-10-19T06:14:20;98783.94;;;14.48;100.00
79586;BME280;69054;50.866;4.636;2023-10-19T06:16:46;98789.41;;;14.43;100.00
79586;BME280;69054;50.866;4.636;2023-10-19T06:19:11;98786.66;;;14.37;100.00
79586;BME280;69054;50.866;4.636;2023-10-19T06:21:36;98786.63;;;14.32;100.00
79586;BME280;69054;50.866;4.636;2023-10-19T06:24:02;98781.09;;;14.27;100.00
79586;BME280;69054;50.866;4.636;2023-10-19T06:26:28;98780.53;;;14.20;100.00
79586;BME280;69054;50.866;4.636;2023-10-19T06:28:54;98790.69;;;14.14;100.00
79586;BME280;69054;50.866;4.636;2023-10-19T06:31:26;98791.75;;;14.13;100.00
79586;BME280;69054;50.866;4.636;2023-10-19T06:33:53;98798.66;;;14.16;100.00
79586;BME280;69054;50.866;4.636;2023-10-19T06:36:18;98795.38;;;14.19;100.00
79586;BME280;69054;50.866;4.636;2023-10-19T06:38:44;98793.47;;;14.25;100.00
79586;BME280;69054;50.866;4.636;2023-10-19T06:41:14;98784.13;;;14.26;100.00
79586;BME280;69054;50.866;4.636;2023-10-19T06:43:39;98777.28;;;14.23;100.00
79586;BME280;69054;50.866;4.636;2023-10-19T06:46:06;98779.16;;;14.23;100.00
79586;BME280;69054;50.866;4.636;2023-10-19T06:48:32;98791.81;;;14.24;100.00
79586;BME280;69054;50.866;4.636;2023-10-19T06:50:58;98775.03;;;14.20;100.00
79586;BME280;69054;50.866;4.636;2023-10-19T06:53:25;98778.31;;;14.17;100.00
79586;BME280;69054;50.866;4.636;2023-10-19T06:55:51;98779.97;;;14.18;100.00
79586;BME280;69054;50.866;4.636;2023-10-19T06:58:16;98780.78;;;14.18;100.00
79586;BME280;69054;50.866;4.636;2023-10-19T07:00:45;98779.69;;;14.14;100.00
79586;BME280;69054;50.866;4.636;2023-10-19T07:03:10;98787.06;;;14.09;100.00
79586;BME280;69054;50.866;4.636;2023-10-19T07:05:36;98782.13;;;14.06;100.00
79586;BME280;69054;50.866;4.636;2023-10-19T07:08:02;98767.31;;;14.12;100.00
79586;BME280;69054;50.866;4.636;2023-10-19T07:10:28;98765.97;;;14.19;100.00
79586;BME280;69054;50.866;4.636;2023-10-19T07:12:55;98763.00;;;14.26;100.00
79586;BME280;69054;50.866;4.636;2023-10-19T07:15:22;98765.47;;;14.33;100.00
79586;BME280;69054;50.866;4.636;2023-10-19T07:17:50;98761.38;;;14.46;100.00
79586;BME280;69054;50.866;4.636;2023-10-19T07:20:18;98755.91;;;14.56;100.00
79586;BME280;69054;50.866;4.636;2023-10-19T07:23:01;98756.53;;;14.63;100.00
79586;BME280;69054;50.866;4.636;2023-10-19T07:25:36;98757.06;;;14.65;100.00
79586;BME280;69054;50.866;4.636;2023-10-19T07:28:15;98760.34;;;14.62;100.00
79586;BME280;69054;50.866;4.636;2023-10-19T07:30:42;98764.47;;;14.60;100.00
79586;BME280;69054;50.866;4.636;2023-10-19T07:33:11;98745.22;;;14.60;100.00
79586;BME280;69054;50.866;4.636;2023-10-19T07:35:43;98744.72;;;14.63;100.00
79586;BME280;69054;50.866;4.636;2023-10-19T07:38:09;98757.03;;;14.60;100.00
79586;BME280;69054;50.866;4.636;2023-10-19T07:40:36;98751.00;;;14.58;100.00
79586;BME280;69054;50.866;4.636;2023-10-19T07:43:02;98754.56;;;14.59;100.00
79586;BME280;69054;50.866;4.636;2023-10-19T07:45:29;98759.00;;;14.65;100.00
79586;BME280;69054;50.866;4.636;2023-10-19T07:47:57;98764.25;;;14.77;100.00
79586;BME280;69054;50.866;4.636;2023-10-19T07:50:22;98755.47;;;15.26;100.00
79586;BME280;69054;50.866;4.636;2023-10-19T07:52:52;98757.41;;;16.37;95.43
79586;BME280;69054;50.866;4.636;2023-10-19T07:55:20;98759.59;;;16.85;93.36
79586;BME280;69054;50.866;4.636;2023-10-19T07:57:49;98764.38;;;17.48;88.95
79586;BME280;69054;50.866;4.636;2023-10-19T08:00:16;98754.16;;;18.02;84.90
79586;BME280;69054;50.866;4.636;2023-10-19T08:02:43;98743.56;;;17.85;85.25
79586;BME280;69054;50.866;4.636;2023-10-19T08:05:14;98750.03;;;17.46;88.41
79586;BME280;69054;50.866;4.636;2023-10-19T08:07:40;98745.44;;;17.02;89.94
79586;BME280;69054;50.866;4.636;2023-10-19T08:10:09;98748.84;;;16.83;91.57
79586;BME280;69054;50.866;4.636;2023-10-19T08:12:36;98741.59;;;16.58;93.18
79586;BME280;69054;50.866;4.636;2023-10-19T08:15:02;98744.69;;;16.46;93.16
79586;BME280;69054;50.866;4.636;2023-10-19T08:17:29;98740.81;;;16.47;93.14
79586;BME280;69054;50.866;4.636;2023-10-19T08:19:54;98743.09;;;16.35;94.07
79586;BME280;69054;50.866;4.636;2023-10-19T08:22:20;98740.63;;;16.28;94.85
79586;BME280;69054;50.866;4.636;2023-10-19T08:24:46;98728.19;;;16.36;95.04
79586;BME280;69054;50.866;4.636;2023-10-19T08:27:12;98717.41;;;16.45;93.56
79586;BME280;69054;50.866;4.636;2023-10-19T08:29:38;98716.59;;;16.39;94.55
79586;BME280;69054;50.866;4.636;2023-10-19T08:32:04;98705.28;;;16.41;93.88
79586;BME280;69054;50.866;4.636;2023-10-19T08:34:34;98704.63;;;16.59;93.51
79586;BME280;69054;50.866;4.636;2023-10-19T08:37:01;98705.28;;;16.85;92.93
79586;BME280;69054;50.866;4.636;2023-10-19T08:39:27;98699.72;;;16.96;91.40
79586;BME280;69054;50.866;4.636;2023-10-19T08:41:53;98708.81;;;16.96;91.78
79586;BME280;69054;50.866;4.636;2023-10-19T08:44:21;98690.41;;;16.87;91.34
79586;BME280;69054;50.866;4.636;2023-10-19T08:46:46;98694.31;;;16.75;91.79
79586;BME280;69054;50.866;4.636;2023-10-19T08:49:17;98693.28;;;16.66;92.04
79586;BME280;69054;50.866;4.636;2023-10-19T08:51:45;98697.06;;;16.75;91.39
79586;BME280;69054;50.866;4.636;2023-10-19T08:54:13;98691.06;;;16.68;92.16
79586;BME280;69054;50.866;4.636;2023-10-19T08:56:39;98686.16;;;16.60;93.06
79586;BME280;69054;50.866;4.636;2023-10-19T08:59:10;98680.66;;;16.55;93.18
79586;BME280;69054;50.866;4.636;2023-10-19T09:01:40;98678.47;;;16.57;93.30
79586;BME280;69054;50.866;4.636;2023-10-19T09:04:10;98680.59;;;16.65;93.58
79586;BME280;69054;50.866;4.636;2023-10-19T09:06:36;98690.28;;;16.62;92.31
79586;BME280;69054;50.866;4.636;2023-10-19T09:09:12;98687.78;;;16.66;92.88
79586;BME280;69054;50.866;4.636;2023-10-19T09:11:49;98694.59;;;16.74;93.55
79586;BME280;69054;50.866;4.636;2023-10-19T09:14:15;98692.66;;;16.74;93.38
79586;BME280;69054;50.866;4.636;2023-10-19T09:16:55;98700.91;;;16.79;92.96
79586;BME280;69054;50.866;4.636;2023-10-19T09:19:36;98705.84;;;16.88;93.03
79586;BME280;69054;50.866;4.636;2023-10-19T09:22:02;98700.13;;;16.74;92.94
79586;BME280;69054;50.866;4.636;2023-10-19T09:24:50;98702.06;;;16.68;92.48
79586;BME280;69054;50.866;4.636;2023-10-19T09:27:20;98706.22;;;16.71;93.13
79586;BME280;69054;50.866;4.636;2023-10-19T09:29:48;98702.66;;;16.65;93.20
79586;BME280;69054;50.866;4.636;2023-10-19T09:32:14;98712.88;;;16.64;94.06
79586;BME280;69054;50.866;4.636;2023-10-19T09:34:40;98723.66;;;16.61;93.63
79586;BME280;69054;50.866;4.636;2023-10-19T09:37:09;98725.84;;;16.59;94.08
79586;BME280;69054;50.866;4.636;2023-10-19T09:39:35;98714.81;;;16.64;93.24
79586;BME280;69054;50.866;4.636;2023-10-19T09:42:10;98704.03;;;16.67;93.53
79586;BME280;69054;50.866;4.636;2023-10-19T09:44:44;98703.75;;;16.69;93.05
79586;BME280;69054;50.866;4.636;2023-10-19T09:47:12;98702.81;;;16.79;94.00
79586;BME280;69054;50.866;4.636;2023-10-19T09:49:42;98698.84;;;17.00;92.09
79586;BME280;69054;50.866;4.636;2023-10-19T09:52:11;98688.97;;;17.24;90.28
79586;BME280;69054;50.866;4.636;2023-10-19T09:54:50;98688.03;;;17.33;89.82
79586;BME280;69054;50.866;4.636;2023-10-19T09:57:23;98690.47;;;17.40;90.09
79586;BME280;69054;50.866;4.636;2023-10-19T09:59:56;98692.41;;;17.40;90.54
79586;BME280;69054;50.866;4.636;2023-10-19T10:02:24;98687.59;;;17.50;89.34
79586;BME280;69054;50.866;4.636;2023-10-19T10:04:52;98683.66;;;17.32;90.00
79586;BME280;69054;50.866;4.636;2023-10-19T10:07:18;98679.91;;;17.47;89.58
79586;BME280;69054;50.866;4.636;2023-10-19T10:09:43;98676.38;;;17.42;88.82
79586;BME280;69054;50.866;4.636;2023-10-19T10:12:23;98682.22;;;17.35;89.74
79586;BME280;69054;50.866;4.636;2023-10-19T10:15:03;98680.59;;;17.34;89.01
79586;BME280;69054;50.866;4.636;2023-10-19T10:17:36;98668.81;;;17.52;89.19
79586;BME280;69054;50.866;4.636;2023-10-19T10:22:40;98680.16;;;17.75;86.79
79586;BME280;69054;50.866;4.636;2023-10-19T10:25:30;98672.50;;;17.91;86.28
79586;BME280;69054;50.866;4.636;2023-10-19T10:27:56;98669.47;;;17.93;87.04
79586;BME280;69054;50.866;4.636;2023-10-19T10:30:22;98665.38;;;18.09;85.01
79586;BME280;69054;50.866;4.636;2023-10-19T10:32:50;98670.59;;;18.11;85.76
79586;BME280;69054;50.866;4.636;2023-10-19T10:38:03;98657.34;;;17.88;87.88
79586;BME280;69054;50.866;4.636;2023-10-19T10:40:31;98657.97;;;17.80;86.55
79586;BME280;69054;50.866;4.636;2023-10-19T10:43:06;98654.03;;;17.86;87.88
79586;BME280;69054;50.866;4.636;2023-10-19T10:45:32;98649.59;;;17.90;87.29
79586;BME280;69054;50.866;4.636;2023-10-19T10:47:57;98649.41;;;17.82;87.80
79586;BME280;69054;50.866;4.636;2023-10-19T10:50:26;98650.13;;;17.68;88.43
79586;BME280;69054;50.866;4.636;2023-10-19T10:52:53;98651.81;;;17.40;91.07
79586;BME280;69054;50.866;4.636;2023-10-19T10:55:23;98654.94;;;17.04;93.21
79586;BME280;69054;50.866;4.636;2023-10-19T10:57:50;98653.75;;;16.81;95.30
79586;BME280;69054;50.866;4.636;2023-10-19T11:00:16;98641.78;;;16.56;98.44
79586;BME280;69054;50.866;4.636;2023-10-19T11:02:44;98644.94;;;16.39;99.07
79586;BME280;69054;50.866;4.636;2023-10-19T11:05:12;98630.97;;;16.25;100.00
79586;BME280;69054;50.866;4.636;2023-10-19T11:07:39;98634.38;;;16.12;100.00
79586;BME280;69054;50.866;4.636;2023-10-19T11:10:05;98634.97;;;16.04;100.00
79586;BME280;69054;50.866;4.636;2023-10-19T11:12:31;98632.22;;;15.99;100.00
79586;BME280;69054;50.866;4.636;2023-10-19T11:14:58;98635.03;;;15.93;100.00
79586;BME280;69054;50.866;4.636;2023-10-19T11:17:24;98626.53;;;15.90;100.00
79586;BME280;69054;50.866;4.636;2023-10-19T11:19:56;98619.34;;;15.89;100.00
79586;BME280;69054;50.866;4.636;2023-10-19T11:22:26;98618.50;;;15.93;100.00
79586;BME280;69054;50.866;4.636;2023-10-19T11:24:54;98613.75;;;16.04;100.00
79586;BME280;69054;50.866;4.636;2023-10-19T11:27:24;98614.28;;;16.11;100.00
79586;BME280;69054;50.866;4.636;2023-10-19T11:30:00;98600.50;;;16.11;100.00
79586;BME280;69054;50.866;4.636;2023-10-19T11:32:36;98607.09;;;16.16;100.00
79586;BME280;69054;50.866;4.636;2023-10-19T11:35:03;98605.09;;;16.21;100.00
79586;BME280;69054;50.866;4.636;2023-10-19T11:37:29;98602.34;;;16.26;100.00
79586;BME280;69054;50.866;4.636;2023-10-19T11:39:55;98600.91;;;16.29;100.00
79586;BME280;69054;50.866;4.636;2023-10-19T11:42:20;98600.34;;;16.32;100.00
79586;BME280;69054;50.866;4.636;2023-10-19T11:44:45;98595.97;;;16.31;100.00
79586;BME280;69054;50.866;4.636;2023-10-19T11:47:12;98588.78;;;16.35;100.00
79586;BME280;69054;50.866;4.636;2023-10-19T11:49:39;98580.25;;;16.31;100.00
79586;BME280;69054;50.866;4.636;2023-10-19T11:52:07;98580.53;;;16.30;100.00
79586;BME280;69054;50.866;4.636;2023-10-19T11:54:34;98584.06;;;16.36;100.00
79586;BME280;69054;50.866;4.636;2023-10-19T11:57:00;98584.88;;;16.41;100.00
79586;BME280;69054;50.866;4.636;2023-10-19T11:59:25;98578.84;;;16.34;100.00
79586;BME280;69054;50.866;4.636;2023-10-19T12:01:51;98569.78;;;16.28;100.00
79586;BME280;69054;50.866;4.636;2023-10-19T12:04:17;98567.38;;;16.22;100.00
79586;BME280;69054;50.866;4.636;2023-10-19T12:06:43;98583.91;;;16.17;100.00
79586;BME280;69054;50.866;4.636;2023-10-19T12:09:11;98584.78;;;16.12;100.00
79586;BME280;69054;50.866;4.636;2023-10-19T12:11:43;98580.69;;;16.04;100.00
79586;BME280;69054;50.866;4.636;2023-10-19T12:14:10;98582.94;;;16.02;100.00
79586;BME280;69054;50.866;4.636;2023-10-19T12:16:40;98584.34;;;15.94;100.00
79586;BME280;69054;50.866;4.636;2023-10-19T12:19:05;98577.47;;;15.92;100.00
79586;BME280;69054;50.866;4.636;2023-10-19T12:21:33;98582.47;;;15.90;100.00
79586;BME280;69054;50.866;4.636;2023-10-19T12:23:59;98580.84;;;15.84;100.00
79586;BME280;69054;50.866;4.636;2023-10-19T12:26:26;98582.19;;;15.76;100.00
79586;BME280;69054;50.866;4.636;2023-10-19T12:28:52;98573.16;;;15.70;100.00
79586;BME280;69054;50.866;4.636;2023-10-19T12:31:21;98570.41;;;15.65;100.00
79586;BME280;69054;50.866;4.636;2023-10-19T12:33:48;98566.63;;;15.61;100.00
79586;BME280;69054;50.866;4.636;2023-10-19T12:36:14;98569.94;;;15.58;100.00
79586;BME280;69054;50.866;4.636;2023-10-19T12:38:54;98570.22;;;15.56;100.00
79586;BME280;69054;50.866;4.636;2023-10-19T12:41:23;98571.56;;;15.59;100.00
79586;BME280;69054;50.866;4.636;2023-10-19T12:43:50;98551.91;;;15.76;100.00
79586;BME280;69054;50.866;4.636;2023-10-19T12:46:22;98541.84;;;16.06;100.00
79586;BME280;69054;50.866;4.636;2023-10-19T12:48:52;98526.50;;;16.34;100.00
79586;BME280;69054;50.866;4.636;2023-10-19T12:51:21;98522.56;;;16.70;100.00
79586;BME280;69054;50.866;4.636;2023-10-19T12:53:53;98525.56;;;17.02;100.00
79586;BME280;69054;50.866;4.636;2023-10-19T12:56:19;98506.38;;;17.60;100.00
79586;BME280;69054;50.866;4.636;2023-10-19T12:58:45;98525.00;;;18.44;97.17
79586;BME280;69054;50.866;4.636;2023-10-19T13:01:10;98515.66;;;18.73;94.49
79586;BME280;69054;50.866;4.636;2023-10-19T13:03:43;98504.06;;;20.27;86.61
79586;BME280;69054;50.866;4.636;2023-10-19T13:06:13;98483.88;;;20.58;81.51